Aérodrome :
LOGIN :

S'inscrire | Disclaimer

   EN    FR    IT 

 










Légende :    VFR   VFR Marginal   IFR   IFR Intensif   IFR Très Intensif
Visi : 
Plafond : 
>= 8 km
>= 3000ft
5 à 8 km
1000 à 3000 ft
1500m à 5 km
500 à 1000 ft
800 à 1500m
200 à 500 ft
< 800m
< 200 ft
Symboles :   Orages  Brouillard  Fortes neiges  Fortes précipitations  Vent > 20 kt
SIGMETs :   Divers  Orages  Givrage  Turbulence  Onde Orograph.  Cendres Volcan.







- Altitude de l'aérodrome : 296 ft
- Code IATA : GKE


ETNG - Geilenkirchen

DERNIER METAR :
  • 200706Z 23008KT 9999 FEW025 BKN050 04/01 Q1020 BECMG -RA

METARs EXPIRÉS :
  • 200650Z 24009KT CAVOK 04/01 Q1020 NOSIG
  • 200600Z 23008KT CAVOK 04/01 Q1020 NOSIG
  • 200550Z 23010KT CAVOK 04/01 Q1020

TAF COR TAF ETNG
Valide du 20 à 06h jusqu'au 20 à 21h UTC


200500Z 2006/2021 23008KT CAVOK
BECMG 2008/2010 22010G18KT 7000 -RA BKN030
BECMG 2011/2013 22015G27KT 4000 -RADZ BKN012
TEMPO 2013/2021 2000 DZRA BKN006
TEMPO 2015/2019 23018G33KT
Pas de NOTAMs connus pour ce terrain.



MET'MAP, la Météo Aéronautique d'un coup d'oeil ! - Copyright ORBIFLY Décembre 2007 - Disclaimer

ORBIFLY MET'MAP TEAM :

Programmation & Développement : Alexandra Zaïnal
Conception & Développement : Baudouin d'Aumeries
Co-Programmation & Développement : Marc-Olivier Méhu
Soutien technique & logistique : Manuel Goepfert

Contact : metmap@orbifly.com




SOURCES & CREDITS :

   NOAA